sensor_id;sensor_type;location;lat;lon;timestamp;pressure;altitude;pressure_sealevel;temperature;humidity
53246;BME280;39569;51.090;-1.786;2023-03-13T00:01:43;98996.84;;;17.29;65.66
53246;BME280;39569;51.090;-1.786;2023-03-13T00:04:11;98996.91;;;17.02;66.82
53246;BME280;39569;51.090;-1.786;2023-03-13T00:06:38;99004.91;;;16.60;67.81
53246;BME280;39569;51.090;-1.786;2023-03-13T00:09:07;98985.59;;;17.42;66.38
53246;BME280;39569;51.090;-1.786;2023-03-13T00:11:34;98992.03;;;16.67;68.30
53246;BME280;39569;51.090;-1.786;2023-03-13T00:14:04;98976.56;;;17.26;66.92
53246;BME280;39569;51.090;-1.786;2023-03-13T00:16:31;98992.59;;;17.01;67.24
53246;BME280;39569;51.090;-1.786;2023-03-13T00:19:00;98978.31;;;16.69;68.53
53246;BME280;39569;51.090;-1.786;2023-03-13T00:21:28;98946.75;;;17.48;66.96
53246;BME280;39569;51.090;-1.786;2023-03-13T00:23:56;98933.63;;;17.66;65.30
53246;BME280;39569;51.090;-1.786;2023-03-13T00:26:25;98958.88;;;17.45;65.37
53246;BME280;39569;51.090;-1.786;2023-03-13T00:28:53;98936.38;;;17.25;66.70
53246;BME280;39569;51.090;-1.786;2023-03-13T00:31:22;98942.03;;;17.23;67.09
53246;BME280;39569;51.090;-1.786;2023-03-13T00:33:50;98966.59;;;16.90;67.52
53246;BME280;39569;51.090;-1.786;2023-03-13T00:36:19;98959.50;;;16.79;68.62
53246;BME280;39569;51.090;-1.786;2023-03-13T00:38:46;98965.31;;;16.98;67.79
53246;BME280;39569;51.090;-1.786;2023-03-13T00:41:15;98969.50;;;16.79;68.36
53246;BME280;39569;51.090;-1.786;2023-03-13T00:43:43;98975.03;;;16.99;67.79
53246;BME280;39569;51.090;-1.786;2023-03-13T00:46:11;98959.38;;;16.96;68.01
53246;BME280;39569;51.090;-1.786;2023-03-13T00:48:40;98968.78;;;16.61;68.39
53246;BME280;39569;51.090;-1.786;2023-03-13T00:51:07;98967.06;;;16.77;68.54
53246;BME280;39569;51.090;-1.786;2023-03-13T00:53:34;98960.09;;;17.23;66.75
53246;BME280;39569;51.090;-1.786;2023-03-13T00:56:03;98949.09;;;16.93;68.16
53246;BME280;39569;51.090;-1.786;2023-03-13T00:58:33;98941.81;;;16.93;68.24
53246;BME280;39569;51.090;-1.786;2023-03-13T01:01:06;98920.81;;;16.95;67.55
53246;BME280;39569;51.090;-1.786;2023-03-13T01:03:33;98929.38;;;16.87;68.09
53246;BME280;39569;51.090;-1.786;2023-03-13T01:06:05;98933.97;;;17.33;66.89
53246;BME280;39569;51.090;-1.786;2023-03-13T01:08:32;98928.38;;;17.45;66.37
53246;BME280;39569;51.090;-1.786;2023-03-13T01:11:00;98948.28;;;16.92;67.96
53246;BME280;39569;51.090;-1.786;2023-03-13T01:13:27;98917.19;;;17.21;66.92
53246;BME280;39569;51.090;-1.786;2023-03-13T01:15:54;98908.03;;;17.27;66.63
53246;BME280;39569;51.090;-1.786;2023-03-13T01:18:21;98906.88;;;17.13;67.31
53246;BME280;39569;51.090;-1.786;2023-03-13T01:20:48;98891.81;;;17.22;66.54
53246;BME280;39569;51.090;-1.786;2023-03-13T01:23:16;98883.50;;;17.29;66.40
53246;BME280;39569;51.090;-1.786;2023-03-13T01:25:43;98893.03;;;17.00;67.36
53246;BME280;39569;51.090;-1.786;2023-03-13T01:28:10;98906.19;;;16.86;67.80
53246;BME280;39569;51.090;-1.786;2023-03-13T01:30:36;98880.19;;;17.74;65.64
53246;BME280;39569;51.090;-1.786;2023-03-13T01:33:03;98881.66;;;17.44;66.54
53246;BME280;39569;51.090;-1.786;2023-03-13T01:35:30;98869.47;;;17.27;66.28
53246;BME280;39569;51.090;-1.786;2023-03-13T01:37:57;98875.31;;;17.14;66.73
53246;BME280;39569;51.090;-1.786;2023-03-13T01:40:25;98859.44;;;17.22;67.37
53246;BME280;39569;51.090;-1.786;2023-03-13T01:42:54;98873.28;;;17.36;66.49
53246;BME280;39569;51.090;-1.786;2023-03-13T01:45:56;98882.97;;;16.85;67.84
53246;BME280;39569;51.090;-1.786;2023-03-13T01:48:29;98865.38;;;17.19;66.99
53246;BME280;39569;51.090;-1.786;2023-03-13T01:50:59;98844.19;;;16.96;68.24
53246;BME280;39569;51.090;-1.786;2023-03-13T01:53:28;98858.19;;;16.88;68.35
53246;BME280;39569;51.090;-1.786;2023-03-13T01:55:58;98846.78;;;17.23;67.85
53246;BME280;39569;51.090;-1.786;2023-03-13T01:58:27;98854.94;;;16.86;67.87
53246;BME280;39569;51.090;-1.786;2023-03-13T02:00:55;98836.06;;;16.86;67.80
53246;BME280;39569;51.090;-1.786;2023-03-13T02:03:24;98857.38;;;16.88;67.79
53246;BME280;39569;51.090;-1.786;2023-03-13T02:05:52;98832.47;;;16.76;68.40
53246;BME280;39569;51.090;-1.786;2023-03-13T02:08:22;98845.56;;;16.94;67.47
53246;BME280;39569;51.090;-1.786;2023-03-13T02:10:55;98826.03;;;17.33;67.14
53246;BME280;39569;51.090;-1.786;2023-03-13T02:13:26;98847.38;;;17.40;66.80
53246;BME280;39569;51.090;-1.786;2023-03-13T02:15:54;98819.91;;;16.91;67.58
53246;BME280;39569;51.090;-1.786;2023-03-13T02:18:22;98827.72;;;16.93;67.97
53246;BME280;39569;51.090;-1.786;2023-03-13T02:20:55;98805.06;;;17.60;66.14
53246;BME280;39569;51.090;-1.786;2023-03-13T02:23:29;98819.50;;;17.24;66.44
53246;BME280;39569;51.090;-1.786;2023-03-13T02:26:00;98801.88;;;16.97;67.62
53246;BME280;39569;51.090;-1.786;2023-03-13T02:28:31;98801.31;;;17.00;67.60
53246;BME280;39569;51.090;-1.786;2023-03-13T02:30:59;98811.13;;;17.21;66.98
53246;BME280;39569;51.090;-1.786;2023-03-13T02:33:29;98803.53;;;17.03;67.60
53246;BME280;39569;51.090;-1.786;2023-03-13T02:35:58;98801.97;;;17.22;67.28
53246;BME280;39569;51.090;-1.786;2023-03-13T02:38:28;98789.19;;;17.64;65.85
53246;BME280;39569;51.090;-1.786;2023-03-13T02:40:57;98792.22;;;16.59;68.17
53246;BME280;39569;51.090;-1.786;2023-03-13T02:43:29;98798.84;;;17.50;66.41
53246;BME280;39569;51.090;-1.786;2023-03-13T02:46:01;98775.53;;;17.24;66.68
53246;BME280;39569;51.090;-1.786;2023-03-13T02:48:31;98776.50;;;16.98;67.61
53246;BME280;39569;51.090;-1.786;2023-03-13T02:51:00;98785.88;;;16.85;68.06
53246;BME280;39569;51.090;-1.786;2023-03-13T02:53:28;98776.69;;;17.48;66.19
53246;BME280;39569;51.090;-1.786;2023-03-13T02:55:55;98770.66;;;17.21;66.49
53246;BME280;39569;51.090;-1.786;2023-03-13T02:58:22;98762.97;;;17.54;66.04
53246;BME280;39569;51.090;-1.786;2023-03-13T03:00:51;98767.75;;;17.37;66.85
53246;BME280;39569;51.090;-1.786;2023-03-13T03:03:18;98771.59;;;16.85;67.63
53246;BME280;39569;51.090;-1.786;2023-03-13T03:05:44;98770.75;;;16.79;68.54
53246;BME280;39569;51.090;-1.786;2023-03-13T03:08:11;98742.63;;;17.32;66.55
53246;BME280;39569;51.090;-1.786;2023-03-13T03:10:38;98737.88;;;16.82;66.92
53246;BME280;39569;51.090;-1.786;2023-03-13T03:13:04;98760.94;;;17.15;66.18
53246;BME280;39569;51.090;-1.786;2023-03-13T03:15:31;98745.84;;;17.19;65.90
53246;BME280;39569;51.090;-1.786;2023-03-13T03:17:59;98747.44;;;17.20;64.85
53246;BME280;39569;51.090;-1.786;2023-03-13T03:20:26;98736.69;;;17.25;65.05
53246;BME280;39569;51.090;-1.786;2023-03-13T03:22:53;98735.31;;;17.27;64.88
53246;BME280;39569;51.090;-1.786;2023-03-13T03:25:19;98737.41;;;17.05;65.05
53246;BME280;39569;51.090;-1.786;2023-03-13T03:27:46;98739.06;;;17.06;64.53
53246;BME280;39569;51.090;-1.786;2023-03-13T03:30:13;98736.13;;;17.23;64.71
53246;BME280;39569;51.090;-1.786;2023-03-13T03:32:40;98728.28;;;17.16;64.88
53246;BME280;39569;51.090;-1.786;2023-03-13T03:35:08;98724.00;;;17.25;64.42
53246;BME280;39569;51.090;-1.786;2023-03-13T03:37:35;98742.03;;;17.10;64.81
53246;BME280;39569;51.090;-1.786;2023-03-13T03:40:02;98718.19;;;16.87;65.92
53246;BME280;39569;51.090;-1.786;2023-03-13T03:42:30;98708.88;;;16.47;67.31
53246;BME280;39569;51.090;-1.786;2023-03-13T03:44:57;98715.28;;;17.03;66.28
53246;BME280;39569;51.090;-1.786;2023-03-13T03:47:24;98700.75;;;17.14;65.83
53246;BME280;39569;51.090;-1.786;2023-03-13T03:49:51;98685.97;;;17.27;65.47
53246;BME280;39569;51.090;-1.786;2023-03-13T03:52:19;98694.31;;;17.20;66.10
53246;BME280;39569;51.090;-1.786;2023-03-13T03:54:45;98693.19;;;17.01;66.55
53246;BME280;39569;51.090;-1.786;2023-03-13T03:57:12;98693.66;;;16.83;66.83
53246;BME280;39569;51.090;-1.786;2023-03-13T03:59:39;98672.28;;;16.61;68.02
53246;BME280;39569;51.090;-1.786;2023-03-13T04:02:05;98668.38;;;16.42;68.47
53246;BME280;39569;51.090;-1.786;2023-03-13T04:04:32;98668.59;;;16.88;67.62
53246;BME280;39569;51.090;-1.786;2023-03-13T04:06:59;98683.44;;;16.90;66.68
53246;BME280;39569;51.090;-1.786;2023-03-13T04:09:27;98702.13;;;17.07;66.49
53246;BME280;39569;51.090;-1.786;2023-03-13T04:11:54;98687.84;;;17.26;65.99
53246;BME280;39569;51.090;-1.786;2023-03-13T04:14:21;98704.91;;;16.65;67.15
53246;BME280;39569;51.090;-1.786;2023-03-13T04:16:48;98679.84;;;16.64;66.54
53246;BME280;39569;51.090;-1.786;2023-03-13T04:19:15;98659.13;;;16.75;66.27
53246;BME280;39569;51.090;-1.786;2023-03-13T04:21:41;98672.06;;;16.78;65.71
53246;BME280;39569;51.090;-1.786;2023-03-13T04:24:08;98669.75;;;17.07;64.99
53246;BME280;39569;51.090;-1.786;2023-03-13T04:26:36;98665.97;;;17.08;63.92
53246;BME280;39569;51.090;-1.786;2023-03-13T04:29:03;98660.97;;;16.64;65.10
53246;BME280;39569;51.090;-1.786;2023-03-13T04:31:30;98675.06;;;16.87;64.50
53246;BME280;39569;51.090;-1.786;2023-03-13T04:33:57;98682.94;;;17.03;64.43
53246;BME280;39569;51.090;-1.786;2023-03-13T04:36:24;98658.59;;;16.73;65.08
53246;BME280;39569;51.090;-1.786;2023-03-13T04:38:51;98661.06;;;16.33;65.63
53246;BME280;39569;51.090;-1.786;2023-03-13T04:41:17;98652.69;;;16.91;64.25
53246;BME280;39569;51.090;-1.786;2023-03-13T04:43:45;98647.91;;;17.08;63.35
53246;BME280;39569;51.090;-1.786;2023-03-13T04:46:12;98650.78;;;16.82;63.98
53246;BME280;39569;51.090;-1.786;2023-03-13T04:48:39;98659.41;;;16.79;63.87
53246;BME280;39569;51.090;-1.786;2023-03-13T04:51:05;98661.66;;;17.07;63.38
53246;BME280;39569;51.090;-1.786;2023-03-13T04:53:32;98672.69;;;17.00;63.30
53246;BME280;39569;51.090;-1.786;2023-03-13T04:55:59;98639.16;;;16.66;63.64
53246;BME280;39569;51.090;-1.786;2023-03-13T04:58:26;98669.38;;;16.73;63.88
53246;BME280;39569;51.090;-1.786;2023-03-13T05:00:54;98654.31;;;16.87;63.82
53246;BME280;39569;51.090;-1.786;2023-03-13T05:03:21;98652.09;;;16.69;63.11
53246;BME280;39569;51.090;-1.786;2023-03-13T05:05:48;98646.22;;;16.92;62.80
53246;BME280;39569;51.090;-1.786;2023-03-13T05:08:15;98650.31;;;16.38;63.88
53246;BME280;39569;51.090;-1.786;2023-03-13T05:10:42;98643.06;;;16.43;63.47
53246;BME280;39569;51.090;-1.786;2023-03-13T05:13:09;98637.22;;;16.56;63.17
53246;BME280;39569;51.090;-1.786;2023-03-13T05:15:35;98643.84;;;16.34;63.04
53246;BME280;39569;51.090;-1.786;2023-03-13T05:18:04;98644.28;;;16.67;62.47
53246;BME280;39569;51.090;-1.786;2023-03-13T05:20:30;98629.81;;;16.27;63.48
53246;BME280;39569;51.090;-1.786;2023-03-13T05:22:57;98639.03;;;16.46;62.14
53246;BME280;39569;51.090;-1.786;2023-03-13T05:25:24;98633.81;;;16.91;61.22
53246;BME280;39569;51.090;-1.786;2023-03-13T05:27:51;98629.28;;;17.07;60.61
53246;BME280;39569;51.090;-1.786;2023-03-13T05:30:17;98636.13;;;16.52;61.23
53246;BME280;39569;51.090;-1.786;2023-03-13T05:32:44;98636.97;;;16.53;61.69
53246;BME280;39569;51.090;-1.786;2023-03-13T05:35:12;98639.13;;;16.61;61.68
53246;BME280;39569;51.090;-1.786;2023-03-13T05:37:39;98623.00;;;16.76;61.15
53246;BME280;39569;51.090;-1.786;2023-03-13T05:40:07;98623.50;;;16.68;60.53
53246;BME280;39569;51.090;-1.786;2023-03-13T05:42:34;98628.47;;;17.11;60.32
53246;BME280;39569;51.090;-1.786;2023-03-13T05:45:01;98633.44;;;16.52;61.33
53246;BME280;39569;51.090;-1.786;2023-03-13T05:47:28;98631.59;;;16.68;61.00
53246;BME280;39569;51.090;-1.786;2023-03-13T05:49:54;98630.53;;;16.79;61.36
53246;BME280;39569;51.090;-1.786;2023-03-13T05:52:23;98612.22;;;16.71;61.19
53246;BME280;39569;51.090;-1.786;2023-03-13T05:54:49;98622.81;;;17.03;60.40
53246;BME280;39569;51.090;-1.786;2023-03-13T05:57:16;98608.47;;;16.82;60.68
53246;BME280;39569;51.090;-1.786;2023-03-13T05:59:43;98604.19;;;17.11;60.69
53246;BME280;39569;51.090;-1.786;2023-03-13T06:02:10;98616.53;;;16.77;61.15
53246;BME280;39569;51.090;-1.786;2023-03-13T06:04:37;98633.78;;;16.76;60.60
53246;BME280;39569;51.090;-1.786;2023-03-13T06:07:04;98614.16;;;16.96;60.07
53246;BME280;39569;51.090;-1.786;2023-03-13T06:09:32;98607.41;;;16.88;60.15
53246;BME280;39569;51.090;-1.786;2023-03-13T06:11:59;98609.53;;;16.81;59.55
53246;BME280;39569;51.090;-1.786;2023-03-13T06:14:25;98603.03;;;16.62;59.71
53246;BME280;39569;51.090;-1.786;2023-03-13T06:16:53;98606.84;;;16.96;59.06
53246;BME280;39569;51.090;-1.786;2023-03-13T06:19:20;98610.75;;;16.43;60.22
53246;BME280;39569;51.090;-1.786;2023-03-13T06:21:48;98591.81;;;16.33;60.62
53246;BME280;39569;51.090;-1.786;2023-03-13T06:24:16;98586.03;;;16.66;60.41
53246;BME280;39569;51.090;-1.786;2023-03-13T06:26:44;98605.69;;;16.00;61.58
53246;BME280;39569;51.090;-1.786;2023-03-13T06:29:13;98610.69;;;16.33;60.87
53246;BME280;39569;51.090;-1.786;2023-03-13T06:31:40;98594.47;;;17.05;59.66
53246;BME280;39569;51.090;-1.786;2023-03-13T06:34:09;98589.38;;;17.14;58.97
53246;BME280;39569;51.090;-1.786;2023-03-13T06:36:36;98613.03;;;16.72;60.00
53246;BME280;39569;51.090;-1.786;2023-03-13T06:39:03;98598.56;;;16.31;60.95
53246;BME280;39569;51.090;-1.786;2023-03-13T06:41:30;98601.22;;;17.13;59.00
53246;BME280;39569;51.090;-1.786;2023-03-13T06:43:58;98606.59;;;16.83;59.63
53246;BME280;39569;51.090;-1.786;2023-03-13T06:46:25;98593.50;;;16.44;59.39
53246;BME280;39569;51.090;-1.786;2023-03-13T06:48:52;98604.97;;;17.02;58.42
53246;BME280;39569;51.090;-1.786;2023-03-13T06:51:20;98605.22;;;16.90;58.48
53246;BME280;39569;51.090;-1.786;2023-03-13T06:53:47;98606.59;;;16.88;58.18
53246;BME280;39569;51.090;-1.786;2023-03-13T06:56:14;98599.34;;;17.08;58.33
53246;BME280;39569;51.090;-1.786;2023-03-13T06:58:41;98605.00;;;17.17;57.82
53246;BME280;39569;51.090;-1.786;2023-03-13T07:01:10;98600.38;;;16.82;58.86
53246;BME280;39569;51.090;-1.786;2023-03-13T07:03:38;98599.09;;;17.25;57.81
53246;BME280;39569;51.090;-1.786;2023-03-13T07:06:05;98585.88;;;16.31;59.37
53246;BME280;39569;51.090;-1.786;2023-03-13T07:08:33;98598.41;;;16.47;59.56
53246;BME280;39569;51.090;-1.786;2023-03-13T07:11:02;98599.25;;;16.68;59.50
53246;BME280;39569;51.090;-1.786;2023-03-13T07:13:30;98572.63;;;17.02;58.72
53246;BME280;39569;51.090;-1.786;2023-03-13T07:15:59;98565.59;;;17.06;58.66
53246;BME280;39569;51.090;-1.786;2023-03-13T07:18:27;98574.25;;;17.08;58.77
53246;BME280;39569;51.090;-1.786;2023-03-13T07:20:55;98578.28;;;16.95;59.00
53246;BME280;39569;51.090;-1.786;2023-03-13T07:23:24;98577.72;;;16.73;58.61
53246;BME280;39569;51.090;-1.786;2023-03-13T07:25:54;98573.91;;;16.64;59.17
53246;BME280;39569;51.090;-1.786;2023-03-13T07:28:21;98568.00;;;16.72;58.64
53246;BME280;39569;51.090;-1.786;2023-03-13T07:30:48;98569.66;;;17.13;57.76
53246;BME280;39569;51.090;-1.786;2023-03-13T07:33:15;98556.94;;;16.73;58.37
53246;BME280;39569;51.090;-1.786;2023-03-13T07:35:47;98557.75;;;16.74;58.74
53246;BME280;39569;51.090;-1.786;2023-03-13T07:38:14;98545.66;;;16.97;57.88
53246;BME280;39569;51.090;-1.786;2023-03-13T07:40:47;98561.31;;;17.05;57.49
53246;BME280;39569;51.090;-1.786;2023-03-13T07:43:14;98568.81;;;16.78;58.22
53246;BME280;39569;51.090;-1.786;2023-03-13T07:45:52;98529.19;;;16.73;58.24
53246;BME280;39569;51.090;-1.786;2023-03-13T07:48:20;98547.00;;;16.99;57.74
53246;BME280;39569;51.090;-1.786;2023-03-13T07:50:48;98543.44;;;16.63;58.92
53246;BME280;39569;51.090;-1.786;2023-03-13T07:53:16;98549.91;;;16.52;59.47
53246;BME280;39569;51.090;-1.786;2023-03-13T07:55:56;98551.31;;;16.95;58.07
53246;BME280;39569;51.090;-1.786;2023-03-13T07:58:24;98552.31;;;16.49;58.33
53246;BME280;39569;51.090;-1.786;2023-03-13T08:00:51;98551.53;;;16.73;58.43
53246;BME280;39569;51.090;-1.786;2023-03-13T08:03:18;98529.75;;;17.10;57.81
53246;BME280;39569;51.090;-1.786;2023-03-13T08:05:44;98549.94;;;16.78;58.57
53246;BME280;39569;51.090;-1.786;2023-03-13T08:08:13;98527.84;;;17.16;57.38
53246;BME280;39569;51.090;-1.786;2023-03-13T08:10:39;98524.06;;;16.97;57.70
53246;BME280;39569;51.090;-1.786;2023-03-13T08:13:06;98534.50;;;16.48;58.37
53246;BME280;39569;51.090;-1.786;2023-03-13T08:15:33;98538.91;;;16.84;57.65
53246;BME280;39569;51.090;-1.786;2023-03-13T08:17:59;98544.28;;;16.64;58.25
53246;BME280;39569;51.090;-1.786;2023-03-13T08:20:26;98514.63;;;17.19;57.72
53246;BME280;39569;51.090;-1.786;2023-03-13T08:22:55;98523.75;;;16.63;57.63
53246;BME280;39569;51.090;-1.786;2023-03-13T08:25:23;98511.94;;;16.89;57.54
53246;BME280;39569;51.090;-1.786;2023-03-13T08:27:50;98533.50;;;17.14;57.10
53246;BME280;39569;51.090;-1.786;2023-03-13T08:30:17;98542.63;;;16.68;58.55
53246;BME280;39569;51.090;-1.786;2023-03-13T08:32:44;98538.91;;;17.09;58.33
53246;BME280;39569;51.090;-1.786;2023-03-13T08:35:11;98551.28;;;16.75;59.67
53246;BME280;39569;51.090;-1.786;2023-03-13T08:37:37;98536.47;;;16.67;58.98
53246;BME280;39569;51.090;-1.786;2023-03-13T08:40:05;98529.44;;;16.66;59.15
53246;BME280;39569;51.090;-1.786;2023-03-13T08:42:37;98520.56;;;17.26;57.96
53246;BME280;39569;51.090;-1.786;2023-03-13T08:45:05;98516.22;;;17.25;57.64
53246;BME280;39569;51.090;-1.786;2023-03-13T08:47:32;98527.59;;;17.02;57.40
53246;BME280;39569;51.090;-1.786;2023-03-13T08:49:59;98525.69;;;16.98;57.70
53246;BME280;39569;51.090;-1.786;2023-03-13T08:52:26;98550.78;;;17.13;57.04
53246;BME280;39569;51.090;-1.786;2023-03-13T08:54:53;98551.56;;;17.69;55.67
53246;BME280;39569;51.090;-1.786;2023-03-13T08:57:20;98538.34;;;16.87;56.68
53246;BME280;39569;51.090;-1.786;2023-03-13T08:59:48;98533.19;;;17.71;55.89
53246;BME280;39569;51.090;-1.786;2023-03-13T09:02:16;98514.50;;;17.90;54.63
53246;BME280;39569;51.090;-1.786;2023-03-13T09:04:45;98533.97;;;17.92;53.84
53246;BME280;39569;51.090;-1.786;2023-03-13T09:07:13;98522.56;;;18.00;54.84
53246;BME280;39569;51.090;-1.786;2023-03-13T09:09:40;98548.03;;;17.74;55.12
53246;BME280;39569;51.090;-1.786;2023-03-13T09:12:07;98528.91;;;17.50;54.94
53246;BME280;39569;51.090;-1.786;2023-03-13T09:14:34;98520.53;;;17.41;56.11
53246;BME280;39569;51.090;-1.786;2023-03-13T09:17:02;98536.22;;;17.54;55.05
53246;BME280;39569;51.090;-1.786;2023-03-13T09:19:29;98553.75;;;17.32;55.36
53246;BME280;39569;51.090;-1.786;2023-03-13T09:21:56;98515.97;;;17.42;56.22
53246;BME280;39569;51.090;-1.786;2023-03-13T09:24:23;98532.41;;;17.45;56.02
53246;BME280;39569;51.090;-1.786;2023-03-13T09:26:50;98564.53;;;17.22;56.98
53246;BME280;39569;51.090;-1.786;2023-03-13T09:29:17;98542.63;;;17.74;56.12
53246;BME280;39569;51.090;-1.786;2023-03-13T09:31:44;98540.28;;;17.07;56.42
53246;BME280;39569;51.090;-1.786;2023-03-13T09:34:12;98568.59;;;17.19;56.54
53246;BME280;39569;51.090;-1.786;2023-03-13T09:36:39;98542.38;;;17.75;55.52
53246;BME280;39569;51.090;-1.786;2023-03-13T09:39:06;98555.38;;;17.53;55.01
53246;BME280;39569;51.090;-1.786;2023-03-13T09:41:44;98540.50;;;17.71;54.89
53246;BME280;39569;51.090;-1.786;2023-03-13T09:44:18;98550.50;;;17.50;55.10
53246;BME280;39569;51.090;-1.786;2023-03-13T09:46:56;98549.09;;;17.88;53.33
53246;BME280;39569;51.090;-1.786;2023-03-13T09:49:31;98544.84;;;17.36;54.32
53246;BME280;39569;51.090;-1.786;2023-03-13T09:52:08;98550.81;;;18.32;52.82
53246;BME280;39569;51.090;-1.786;2023-03-13T09:54:39;98548.09;;;17.58;54.05
53246;BME280;39569;51.090;-1.786;2023-03-13T09:57:14;98536.47;;;18.32;53.28
53246;BME280;39569;51.090;-1.786;2023-03-13T09:59:46;98559.91;;;18.51;51.47
53246;BME280;39569;51.090;-1.786;2023-03-13T10:02:24;98553.72;;;18.46;51.95
53246;BME280;39569;51.090;-1.786;2023-03-13T10:04:56;98546.59;;;18.06;52.57
53246;BME280;39569;51.090;-1.786;2023-03-13T10:07:26;98559.78;;;18.77;51.56
53246;BME280;39569;51.090;-1.786;2023-03-13T10:09:52;98554.25;;;18.97;50.76
53246;BME280;39569;51.090;-1.786;2023-03-13T10:12:24;98562.00;;;19.08;50.60
53246;BME280;39569;51.090;-1.786;2023-03-13T10:14:59;98578.00;;;17.82;53.67
53246;BME280;39569;51.090;-1.786;2023-03-13T10:17:34;98555.63;;;18.40;52.51
53246;BME280;39569;51.090;-1.786;2023-03-13T10:20:16;98561.84;;;18.51;51.94
53246;BME280;39569;51.090;-1.786;2023-03-13T10:22:49;98567.94;;;17.98;52.57
53246;BME280;39569;51.090;-1.786;2023-03-13T10:25:32;98560.03;;;18.80;51.92
53246;BME280;39569;51.090;-1.786;2023-03-13T10:28:01;98576.31;;;18.70;51.49
53246;BME280;39569;51.090;-1.786;2023-03-13T10:30:29;98561.09;;;18.79;52.10
53246;BME280;39569;51.090;-1.786;2023-03-13T10:32:58;98552.34;;;18.53;52.14
53246;BME280;39569;51.090;-1.786;2023-03-13T10:35:32;98554.13;;;18.19;52.79
53246;BME280;39569;51.090;-1.786;2023-03-13T10:38:04;98572.81;;;18.01;53.23
53246;BME280;39569;51.090;-1.786;2023-03-13T10:40:31;98560.13;;;18.65;52.34
53246;BME280;39569;51.090;-1.786;2023-03-13T10:43:04;98566.94;;;17.68;54.22
53246;BME280;39569;51.090;-1.786;2023-03-13T10:45:33;98551.19;;;17.96;54.19
53246;BME280;39569;51.090;-1.786;2023-03-13T10:48:03;98561.47;;;17.99;53.86
53246;BME280;39569;51.090;-1.786;2023-03-13T10:50:34;98550.31;;;18.20;52.93
53246;BME280;39569;51.090;-1.786;2023-03-13T10:53:20;98552.44;;;18.82;51.55
53246;BME280;39569;51.090;-1.786;2023-03-13T10:55:48;98544.59;;;19.19;50.93
53246;BME280;39569;51.090;-1.786;2023-03-13T10:58:18;98539.56;;;19.41;50.71
53246;BME280;39569;51.090;-1.786;2023-03-13T11:00:46;98533.13;;;19.61;49.67
53246;BME280;39569;51.090;-1.786;2023-03-13T11:03:16;98539.09;;;19.34;50.42
53246;BME280;39569;51.090;-1.786;2023-03-13T11:05:54;98536.66;;;19.28;50.77
53246;BME280;39569;51.090;-1.786;2023-03-13T11:08:22;98519.09;;;19.25;50.86
53246;BME280;39569;51.090;-1.786;2023-03-13T11:10:55;98552.56;;;19.39;49.55
53246;BME280;39569;51.090;-1.786;2023-03-13T11:13:43;98522.78;;;19.06;50.43
53246;BME280;39569;51.090;-1.786;2023-03-13T11:16:19;98516.66;;;19.81;49.46
53246;BME280;39569;51.090;-1.786;2023-03-13T11:19:14;98519.75;;;20.17;47.83
53246;BME280;39569;51.090;-1.786;2023-03-13T11:22:00;98522.19;;;19.95;48.68
53246;BME280;39569;51.090;-1.786;2023-03-13T11:24:36;98517.59;;;18.76;51.27
53246;BME280;39569;51.090;-1.786;2023-03-13T11:27:06;98509.97;;;19.74;48.84
53246;BME280;39569;51.090;-1.786;2023-03-13T11:29:45;98516.72;;;19.47;49.92
53246;BME280;39569;51.090;-1.786;2023-03-13T11:32:22;98522.66;;;18.87;51.42
53246;BME280;39569;51.090;-1.786;2023-03-13T11:34:51;98527.50;;;20.05;49.38
53246;BME280;39569;51.090;-1.786;2023-03-13T11:37:21;98524.00;;;18.51;51.34
53246;BME280;39569;51.090;-1.786;2023-03-13T11:39:54;98524.38;;;19.69;49.51
53246;BME280;39569;51.090;-1.786;2023-03-13T11:42:47;98520.53;;;19.18;50.97
53246;BME280;39569;51.090;-1.786;2023-03-13T11:45:38;98524.44;;;18.04;53.53
53246;BME280;39569;51.090;-1.786;2023-03-13T11:48:16;98516.56;;;18.67;52.65
53246;BME280;39569;51.090;-1.786;2023-03-13T11:50:48;98516.06;;;18.06;53.56
53246;BME280;39569;51.090;-1.786;2023-03-13T11:53:39;98505.31;;;18.54;52.97
53246;BME280;39569;51.090;-1.786;2023-03-13T11:56:14;98517.06;;;18.20;53.44
53246;BME280;39569;51.090;-1.786;2023-03-13T11:58:53;98495.44;;;18.25;53.75
53246;BME280;39569;51.090;-1.786;2023-03-13T12:01:23;98494.66;;;19.02;51.77
53246;BME280;39569;51.090;-1.786;2023-03-13T12:03:57;98502.13;;;18.86;52.31
53246;BME280;39569;51.090;-1.786;2023-03-13T12:06:28;98504.00;;;18.86;52.20
53246;BME280;39569;51.090;-1.786;2023-03-13T12:09:03;98503.31;;;18.21;52.88
53246;BME280;39569;51.090;-1.786;2023-03-13T12:11:35;98492.28;;;18.61;52.42
53246;BME280;39569;51.090;-1.786;2023-03-13T12:14:11;98489.56;;;18.61;51.82
53246;BME280;39569;51.090;-1.786;2023-03-13T12:16:42;98497.44;;;18.58;51.62
53246;BME280;39569;51.090;-1.786;2023-03-13T12:19:14;98510.78;;;19.17;50.29
53246;BME280;39569;51.090;-1.786;2023-03-13T12:21:46;98505.63;;;18.43;52.51
53246;BME280;39569;51.090;-1.786;2023-03-13T12:24:24;98484.56;;;18.40;52.29
53246;BME280;39569;51.090;-1.786;2023-03-13T12:26:53;98492.78;;;18.15;53.01
53246;BME280;39569;51.090;-1.786;2023-03-13T12:29:36;98491.31;;;17.84;54.10
53246;BME280;39569;51.090;-1.786;2023-03-13T12:32:09;98485.97;;;17.63;54.03
53246;BME280;39569;51.090;-1.786;2023-03-13T12:34:43;98479.59;;;18.03;53.77
53246;BME280;39569;51.090;-1.786;2023-03-13T12:37:22;98483.28;;;17.63;55.07
53246;BME280;39569;51.090;-1.786;2023-03-13T12:39:55;98492.75;;;17.56;56.52
53246;BME280;39569;51.090;-1.786;2023-03-13T12:42:39;98485.66;;;17.70;56.83
53246;BME280;39569;51.090;-1.786;2023-03-13T12:45:13;98490.34;;;17.09;57.67
53246;BME280;39569;51.090;-1.786;2023-03-13T12:50:43;98488.63;;;17.74;56.35
53246;BME280;39569;51.090;-1.786;2023-03-13T12:53:40;98473.81;;;17.71;56.09
53246;BME280;39569;51.090;-1.786;2023-03-13T12:56:24;98474.63;;;17.61;55.71
53246;BME280;39569;51.090;-1.786;2023-03-13T12:58:58;98466.53;;;17.61;56.83
53246;BME280;39569;51.090;-1.786;2023-03-13T13:01:31;98462.81;;;18.11;55.60
53246;BME280;39569;51.090;-1.786;2023-03-13T13:04:00;98474.63;;;17.66;57.24
53246;BME280;39569;51.090;-1.786;2023-03-13T13:06:49;98464.28;;;17.84;58.17